sensor_id;sensor_type;location;lat;lon;timestamp;pressure;altitude;pressure_sealevel;temperature;humidity
3917;BME280;1973;50.518;7.318;2024-02-04T00:00:53;101769.25;;;11.34;100.00
3917;BME280;1973;50.518;7.318;2024-02-04T00:03:20;101769.44;;;11.33;100.00
3917;BME280;1973;50.518;7.318;2024-02-04T00:05:48;101758.81;;;11.30;100.00
3917;BME280;1973;50.518;7.318;2024-02-04T00:08:15;101749.03;;;11.27;100.00
3917;BME280;1973;50.518;7.318;2024-02-04T00:10:43;101757.50;;;11.26;100.00
3917;BME280;1973;50.518;7.318;2024-02-04T00:13:10;101740.50;;;11.22;100.00
3917;BME280;1973;50.518;7.318;2024-02-04T00:15:36;101742.81;;;11.18;100.00
3917;BME280;1973;50.518;7.318;2024-02-04T00:18:03;101745.97;;;11.15;100.00
3917;BME280;1973;50.518;7.318;2024-02-04T00:20:30;101745.28;;;11.13;100.00
3917;BME280;1973;50.518;7.318;2024-02-04T00:22:59;101751.00;;;11.12;100.00
3917;BME280;1973;50.518;7.318;2024-02-04T00:25:25;101753.94;;;11.10;100.00
3917;BME280;1973;50.518;7.318;2024-02-04T00:27:52;101762.41;;;11.09;100.00
3917;BME280;1973;50.518;7.318;2024-02-04T00:30:18;101774.69;;;11.06;100.00
3917;BME280;1973;50.518;7.318;2024-02-04T00:32:45;101772.09;;;11.05;100.00
3917;BME280;1973;50.518;7.318;2024-02-04T00:35:12;101769.56;;;11.03;100.00
3917;BME280;1973;50.518;7.318;2024-02-04T00:37:39;101774.22;;;11.03;100.00
3917;BME280;1973;50.518;7.318;2024-02-04T00:40:06;101785.06;;;11.04;100.00
3917;BME280;1973;50.518;7.318;2024-02-04T00:42:32;101782.31;;;11.04;100.00
3917;BME280;1973;50.518;7.318;2024-02-04T00:44:59;101766.59;;;11.05;100.00
3917;BME280;1973;50.518;7.318;2024-02-04T00:47:26;101772.97;;;11.05;100.00
3917;BME280;1973;50.518;7.318;2024-02-04T00:49:52;101766.22;;;11.08;100.00
3917;BME280;1973;50.518;7.318;2024-02-04T00:52:20;101767.09;;;11.08;100.00
3917;BME280;1973;50.518;7.318;2024-02-04T00:54:47;101763.25;;;11.09;100.00
3917;BME280;1973;50.518;7.318;2024-02-04T00:57:13;101772.38;;;11.10;100.00
3917;BME280;1973;50.518;7.318;2024-02-04T00:59:40;101766.69;;;11.11;100.00
3917;BME280;1973;50.518;7.318;2024-02-04T01:02:06;101762.84;;;11.12;100.00
3917;BME280;1973;50.518;7.318;2024-02-04T01:04:33;101757.34;;;11.12;100.00
3917;BME280;1973;50.518;7.318;2024-02-04T01:07:00;101753.56;;;11.13;100.00
3917;BME280;1973;50.518;7.318;2024-02-04T01:09:30;101756.31;;;11.13;100.00
3917;BME280;1973;50.518;7.318;2024-02-04T01:11:57;101751.66;;;11.14;100.00
3917;BME280;1973;50.518;7.318;2024-02-04T01:14:24;101762.84;;;11.12;100.00
3917;BME280;1973;50.518;7.318;2024-02-04T01:16:50;101754.81;;;11.11;100.00
3917;BME280;1973;50.518;7.318;2024-02-04T01:19:17;101742.94;;;11.10;100.00
3917;BME280;1973;50.518;7.318;2024-02-04T01:21:44;101749.69;;;11.08;100.00
3917;BME280;1973;50.518;7.318;2024-02-04T01:24:11;101752.63;;;11.06;100.00
3917;BME280;1973;50.518;7.318;2024-02-04T01:26:38;101753.50;;;11.07;100.00
3917;BME280;1973;50.518;7.318;2024-02-04T01:29:04;101756.44;;;11.05;100.00
3917;BME280;1973;50.518;7.318;2024-02-04T01:31:31;101757.69;;;11.03;100.00
3917;BME280;1973;50.518;7.318;2024-02-04T01:33:58;101758.94;;;11.00;100.00
3917;BME280;1973;50.518;7.318;2024-02-04T01:36:24;101761.00;;;10.98;100.00
3917;BME280;1973;50.518;7.318;2024-02-04T01:38:51;101765.88;;;10.96;100.00
3917;BME280;1973;50.518;7.318;2024-02-04T01:41:17;101767.13;;;10.94;100.00
3917;BME280;1973;50.518;7.318;2024-02-04T01:43:45;101767.31;;;10.92;100.00
3917;BME280;1973;50.518;7.318;2024-02-04T01:46:12;101750.78;;;10.92;100.00
3917;BME280;1973;50.518;7.318;2024-02-04T01:48:40;101752.69;;;10.92;100.00
3917;BME280;1973;50.518;7.318;2024-02-04T01:51:06;101766.63;;;10.90;100.00
3917;BME280;1973;50.518;7.318;2024-02-04T01:53:34;101755.25;;;10.93;100.00
3917;BME280;1973;50.518;7.318;2024-02-04T01:56:01;101750.38;;;10.95;100.00
3917;BME280;1973;50.518;7.318;2024-02-04T01:58:28;101745.91;;;10.94;100.00
3917;BME280;1973;50.518;7.318;2024-02-04T02:00:55;101743.84;;;10.96;100.00
3917;BME280;1973;50.518;7.318;2024-02-04T02:03:21;101750.00;;;10.98;100.00
3917;BME280;1973;50.518;7.318;2024-02-04T02:05:49;101741.53;;;11.00;100.00
3917;BME280;1973;50.518;7.318;2024-02-04T02:08:16;101738.38;;;11.03;100.00
3917;BME280;1973;50.518;7.318;2024-02-04T02:13:27;101732.53;;;11.12;100.00
3917;BME280;1973;50.518;7.318;2024-02-04T02:16:01;101726.00;;;11.13;100.00
3917;BME280;1973;50.518;7.318;2024-02-04T02:18:44;101720.06;;;11.16;100.00
3917;BME280;1973;50.518;7.318;2024-02-04T02:24:38;101719.31;;;11.22;100.00
3917;BME280;1973;50.518;7.318;2024-02-04T02:27:05;101719.94;;;11.24;100.00
3917;BME280;1973;50.518;7.318;2024-02-04T02:29:32;101724.44;;;11.26;100.00
3917;BME280;1973;50.518;7.318;2024-02-04T02:31:59;101707.88;;;11.26;100.00
3917;BME280;1973;50.518;7.318;2024-02-04T02:34:27;101715.75;;;11.29;100.00
3917;BME280;1973;50.518;7.318;2024-02-04T02:37:26;101704.53;;;11.30;100.00
3917;BME280;1973;50.518;7.318;2024-02-04T02:40:01;101717.06;;;11.33;100.00
3917;BME280;1973;50.518;7.318;2024-02-04T02:42:32;101714.75;;;11.36;100.00
3917;BME280;1973;50.518;7.318;2024-02-04T02:44:59;101715.41;;;11.38;100.00
3917;BME280;1973;50.518;7.318;2024-02-04T02:47:28;101727.97;;;11.41;100.00
3917;BME280;1973;50.518;7.318;2024-02-04T02:49:55;101713.31;;;11.40;100.00
3917;BME280;1973;50.518;7.318;2024-02-04T02:52:22;101717.78;;;11.41;100.00
3917;BME280;1973;50.518;7.318;2024-02-04T02:54:49;101729.28;;;11.45;100.00
3917;BME280;1973;50.518;7.318;2024-02-04T02:57:15;101725.44;;;11.46;100.00
3917;BME280;1973;50.518;7.318;2024-02-04T02:59:42;101721.47;;;11.48;100.00
3917;BME280;1973;50.518;7.318;2024-02-04T03:02:09;101711.75;;;11.52;100.00
3917;BME280;1973;50.518;7.318;2024-02-04T03:04:36;101721.50;;;11.55;100.00
3917;BME280;1973;50.518;7.318;2024-02-04T03:07:03;101715.59;;;11.58;100.00
3917;BME280;1973;50.518;7.318;2024-02-04T03:09:30;101705.69;;;11.63;100.00
3917;BME280;1973;50.518;7.318;2024-02-04T03:11:57;101717.16;;;11.67;100.00
3917;BME280;1973;50.518;7.318;2024-02-04T03:14:23;101711.66;;;11.67;100.00
3917;BME280;1973;50.518;7.318;2024-02-04T03:16:50;101714.00;;;11.70;100.00
3917;BME280;1973;50.518;7.318;2024-02-04T03:19:20;101720.38;;;11.70;100.00
3917;BME280;1973;50.518;7.318;2024-02-04T03:21:47;101714.25;;;11.75;100.00
3917;BME280;1973;50.518;7.318;2024-02-04T03:24:14;101716.66;;;11.78;100.00
3917;BME280;1973;50.518;7.318;2024-02-04T03:26:40;101715.56;;;11.79;100.00
3917;BME280;1973;50.518;7.318;2024-02-04T03:29:07;101714.34;;;11.82;100.00
3917;BME280;1973;50.518;7.318;2024-02-04T03:31:34;101707.56;;;11.84;100.00
3917;BME280;1973;50.518;7.318;2024-02-04T03:34:00;101717.31;;;11.87;100.00
3917;BME280;1973;50.518;7.318;2024-02-04T03:36:27;101722.66;;;11.88;100.00
3917;BME280;1973;50.518;7.318;2024-02-04T03:38:54;101718.19;;;11.87;100.00
3917;BME280;1973;50.518;7.318;2024-02-04T03:41:20;101714.38;;;11.88;100.00
3917;BME280;1973;50.518;7.318;2024-02-04T03:43:47;101705.06;;;11.89;100.00
3917;BME280;1973;50.518;7.318;2024-02-04T03:46:16;101709.03;;;11.87;100.00
3917;BME280;1973;50.518;7.318;2024-02-04T03:48:43;101708.19;;;11.86;100.00
3917;BME280;1973;50.518;7.318;2024-02-04T03:51:18;101700.38;;;11.90;100.00
3917;BME280;1973;50.518;7.318;2024-02-04T03:53:45;101706.09;;;11.88;100.00
3917;BME280;1973;50.518;7.318;2024-02-04T03:56:12;101705.06;;;11.89;100.00
3917;BME280;1973;50.518;7.318;2024-02-04T03:58:39;101711.00;;;11.93;100.00
3917;BME280;1973;50.518;7.318;2024-02-04T04:01:05;101708.66;;;11.90;100.00
3917;BME280;1973;50.518;7.318;2024-02-04T04:03:36;101699.53;;;11.89;100.00
3917;BME280;1973;50.518;7.318;2024-02-04T04:06:02;101702.06;;;11.91;100.00
3917;BME280;1973;50.518;7.318;2024-02-04T04:08:29;101700.56;;;11.88;100.00
3917;BME280;1973;50.518;7.318;2024-02-04T04:10:56;101699.91;;;11.86;100.00
3917;BME280;1973;50.518;7.318;2024-02-04T04:13:22;101700.75;;;11.87;100.00
3917;BME280;1973;50.518;7.318;2024-02-04T04:15:50;101706.09;;;11.88;100.00
3917;BME280;1973;50.518;7.318;2024-02-04T04:18:17;101713.72;;;11.86;100.00
3917;BME280;1973;50.518;7.318;2024-02-04T04:20:43;101702.88;;;11.85;100.00
3917;BME280;1973;50.518;7.318;2024-02-04T04:23:10;101703.75;;;11.85;100.00
3917;BME280;1973;50.518;7.318;2024-02-04T04:25:36;101699.69;;;11.81;100.00
3917;BME280;1973;50.518;7.318;2024-02-04T04:28:03;101689.09;;;11.85;100.00
3917;BME280;1973;50.518;7.318;2024-02-04T04:30:30;101689.94;;;11.85;100.00
3917;BME280;1973;50.518;7.318;2024-02-04T04:32:57;101708.41;;;11.85;100.00
3917;BME280;1973;50.518;7.318;2024-02-04T04:35:26;101713.50;;;11.88;100.00
3917;BME280;1973;50.518;7.318;2024-02-04T04:37:52;101716.09;;;11.89;100.00
3917;BME280;1973;50.518;7.318;2024-02-04T04:40:19;101711.63;;;11.88;100.00
3917;BME280;1973;50.518;7.318;2024-02-04T04:42:46;101713.72;;;11.86;100.00
3917;BME280;1973;50.518;7.318;2024-02-04T04:45:12;101699.91;;;11.86;100.00
3917;BME280;1973;50.518;7.318;2024-02-04T04:47:40;101706.72;;;11.90;100.00
3917;BME280;1973;50.518;7.318;2024-02-04T04:50:07;101708.44;;;11.91;100.00
3917;BME280;1973;50.518;7.318;2024-02-04T04:52:34;101709.75;;;11.95;100.00
3917;BME280;1973;50.518;7.318;2024-02-04T04:55:00;101698.72;;;11.95;100.00
3917;BME280;1973;50.518;7.318;2024-02-04T04:57:27;101702.50;;;11.94;100.00
3917;BME280;1973;50.518;7.318;2024-02-04T04:59:54;101713.97;;;11.91;100.00
3917;BME280;1973;50.518;7.318;2024-02-04T05:02:20;101708.84;;;11.88;100.00
3917;BME280;1973;50.518;7.318;2024-02-04T05:04:47;101714.78;;;11.85;100.00
3917;BME280;1973;50.518;7.318;2024-02-04T05:07:14;101726.22;;;11.82;100.00
3917;BME280;1973;50.518;7.318;2024-02-04T05:09:41;101725.78;;;11.79;100.00
3917;BME280;1973;50.518;7.318;2024-02-04T05:12:08;101735.28;;;11.76;100.00
3917;BME280;1973;50.518;7.318;2024-02-04T05:14:36;101730.81;;;11.75;100.00
3917;BME280;1973;50.518;7.318;2024-02-04T05:17:04;101726.56;;;11.73;100.00
3917;BME280;1973;50.518;7.318;2024-02-04T05:19:30;101729.53;;;11.71;100.00
3917;BME280;1973;50.518;7.318;2024-02-04T05:21:57;101728.66;;;11.70;100.00
3917;BME280;1973;50.518;7.318;2024-02-04T05:24:23;101726.06;;;11.69;100.00
3917;BME280;1973;50.518;7.318;2024-02-04T05:26:50;101717.16;;;11.67;100.00
3917;BME280;1973;50.518;7.318;2024-02-04T05:29:16;101708.22;;;11.65;100.00
3917;BME280;1973;50.518;7.318;2024-02-04T05:31:43;101709.06;;;11.65;100.00
3917;BME280;1973;50.518;7.318;2024-02-04T05:34:10;101714.41;;;11.67;100.00
3917;BME280;1973;50.518;7.318;2024-02-04T05:36:37;101705.47;;;11.65;100.00
3917;BME280;1973;50.518;7.318;2024-02-04T05:39:11;101712.88;;;11.64;100.00
3917;BME280;1973;50.518;7.318;2024-02-04T05:41:39;101719.66;;;11.62;100.00
3917;BME280;1973;50.518;7.318;2024-02-04T05:44:06;101714.53;;;11.59;100.00
3917;BME280;1973;50.518;7.318;2024-02-04T05:46:38;101707.72;;;11.55;100.00
3917;BME280;1973;50.518;7.318;2024-02-04T05:49:05;101708.13;;;11.52;100.00
3917;BME280;1973;50.518;7.318;2024-02-04T05:51:37;101700.44;;;11.47;100.00
3917;BME280;1973;50.518;7.318;2024-02-04T05:54:04;101700.84;;;11.44;100.00
3917;BME280;1973;50.518;7.318;2024-02-04T05:56:30;101695.75;;;11.41;100.00
3917;BME280;1973;50.518;7.318;2024-02-04T05:58:57;101695.28;;;11.38;100.00
3917;BME280;1973;50.518;7.318;2024-02-04T06:01:23;101705.63;;;11.36;100.00
3917;BME280;1973;50.518;7.318;2024-02-04T06:03:50;101706.22;;;11.31;100.00
3917;BME280;1973;50.518;7.318;2024-02-04T06:06:17;101694.75;;;11.28;100.00
3917;BME280;1973;50.518;7.318;2024-02-04T06:08:46;101696.84;;;11.26;100.00
3917;BME280;1973;50.518;7.318;2024-02-04T06:11:13;101697.25;;;11.22;100.00
3917;BME280;1973;50.518;7.318;2024-02-04T06:13:41;101694.69;;;11.21;100.00
3917;BME280;1973;50.518;7.318;2024-02-04T06:16:08;101694.91;;;11.19;100.00
3917;BME280;1973;50.518;7.318;2024-02-04T06:18:36;101689.56;;;11.18;100.00
3917;BME280;1973;50.518;7.318;2024-02-04T06:21:06;101701.00;;;11.15;100.00
3917;BME280;1973;50.518;7.318;2024-02-04T06:23:32;101709.47;;;11.13;100.00
3917;BME280;1973;50.518;7.318;2024-02-04T06:26:00;101702.22;;;11.12;100.00
3917;BME280;1973;50.518;7.318;2024-02-04T06:28:26;101697.97;;;11.10;100.00
3917;BME280;1973;50.518;7.318;2024-02-04T06:30:53;101696.06;;;11.10;100.00
3917;BME280;1973;50.518;7.318;2024-02-04T06:33:20;101698.19;;;11.08;100.00
3917;BME280;1973;50.518;7.318;2024-02-04T06:35:48;101685.44;;;11.07;100.00
3917;BME280;1973;50.518;7.318;2024-02-04T06:38:14;101690.28;;;11.05;100.00
3917;BME280;1973;50.518;7.318;2024-02-04T06:40:41;101686.91;;;11.03;100.00
3917;BME280;1973;50.518;7.318;2024-02-04T06:43:08;101682.41;;;11.02;100.00
3917;BME280;1973;50.518;7.318;2024-02-04T06:45:34;101668.66;;;11.02;100.00
3917;BME280;1973;50.518;7.318;2024-02-04T06:48:01;101674.16;;;11.02;100.00
3917;BME280;1973;50.518;7.318;2024-02-04T06:50:29;101688.97;;;11.01;100.00
3917;BME280;1973;50.518;7.318;2024-02-04T06:52:55;101693.66;;;11.01;100.00
3917;BME280;1973;50.518;7.318;2024-02-04T06:55:22;101697.25;;;11.01;100.00
3917;BME280;1973;50.518;7.318;2024-02-04T06:57:48;101688.97;;;11.01;100.00
3917;BME280;1973;50.518;7.318;2024-02-04T07:00:15;101689.84;;;11.02;100.00
3917;BME280;1973;50.518;7.318;2024-02-04T07:02:42;101688.97;;;11.01;100.00
3917;BME280;1973;50.518;7.318;2024-02-04T07:05:09;101692.81;;;11.00;100.00
3917;BME280;1973;50.518;7.318;2024-02-04T07:07:37;101694.69;;;11.00;100.00
3917;BME280;1973;50.518;7.318;2024-02-04T07:10:04;101686.63;;;10.98;100.00
3917;BME280;1973;50.518;7.318;2024-02-04T07:12:31;101692.34;;;10.97;100.00
3917;BME280;1973;50.518;7.318;2024-02-04T07:14:58;101688.72;;;10.96;100.00
3917;BME280;1973;50.518;7.318;2024-02-04T07:17:25;101685.97;;;10.96;100.00
3917;BME280;1973;50.518;7.318;2024-02-04T07:19:51;101683.22;;;10.96;100.00
3917;BME280;1973;50.518;7.318;2024-02-04T07:22:18;101684.94;;;10.97;100.00
3917;BME280;1973;50.518;7.318;2024-02-04T07:24:45;101697.63;;;10.98;100.00
3917;BME280;1973;50.518;7.318;2024-02-04T07:27:11;101690.03;;;11.00;100.00
3917;BME280;1973;50.518;7.318;2024-02-04T07:29:38;101692.19;;;11.05;100.00
3917;BME280;1973;50.518;7.318;2024-02-04T07:32:05;101681.44;;;11.10;100.00
3917;BME280;1973;50.518;7.318;2024-02-04T07:34:31;101688.09;;;11.15;100.00
3917;BME280;1973;50.518;7.318;2024-02-04T07:36:58;101677.28;;;11.20;100.00
3917;BME280;1973;50.518;7.318;2024-02-04T07:39:25;101669.69;;;11.22;100.00
3917;BME280;1973;50.518;7.318;2024-02-04T07:41:51;101663.78;;;11.26;100.00
3917;BME280;1973;50.518;7.318;2024-02-04T07:44:20;101665.50;;;11.27;100.00
3917;BME280;1973;50.518;7.318;2024-02-04T07:46:47;101660.63;;;11.29;100.00
3917;BME280;1973;50.518;7.318;2024-02-04T07:49:13;101674.00;;;11.32;100.00
3917;BME280;1973;50.518;7.318;2024-02-04T07:51:40;101671.28;;;11.38;100.00
3917;BME280;1973;50.518;7.318;2024-02-04T07:54:06;101665.84;;;11.45;100.00
3917;BME280;1973;50.518;7.318;2024-02-04T07:56:33;101669.53;;;11.52;100.00
3917;BME280;1973;50.518;7.318;2024-02-04T07:58:59;101675.06;;;11.58;100.00
3917;BME280;1973;50.518;7.318;2024-02-04T08:01:26;101675.13;;;11.65;100.00
3917;BME280;1973;50.518;7.318;2024-02-04T08:03:53;101676.44;;;11.69;100.00
3917;BME280;1973;50.518;7.318;2024-02-04T08:06:19;101679.25;;;11.76;100.00
3917;BME280;1973;50.518;7.318;2024-02-04T08:08:46;101678.66;;;11.80;100.00
3917;BME280;1973;50.518;7.318;2024-02-04T08:11:17;101672.31;;;11.86;100.00
3917;BME280;1973;50.518;7.318;2024-02-04T08:13:44;101680.22;;;11.89;100.00
3917;BME280;1973;50.518;7.318;2024-02-04T08:16:11;101689.38;;;11.96;100.00
3917;BME280;1973;50.518;7.318;2024-02-04T08:18:38;101684.94;;;12.02;100.00
3917;BME280;1973;50.518;7.318;2024-02-04T08:21:05;101679.69;;;12.07;100.00
3917;BME280;1973;50.518;7.318;2024-02-04T08:23:32;101678.00;;;12.12;100.00
3917;BME280;1973;50.518;7.318;2024-02-04T08:25:59;101681.88;;;12.18;100.00
3917;BME280;1973;50.518;7.318;2024-02-04T08:28:25;101691.22;;;12.24;100.00
3917;BME280;1973;50.518;7.318;2024-02-04T08:30:52;101672.13;;;12.29;100.00
3917;BME280;1973;50.518;7.318;2024-02-04T08:33:19;101664.28;;;12.32;100.00
3917;BME280;1973;50.518;7.318;2024-02-04T08:35:45;101661.13;;;12.35;100.00
3917;BME280;1973;50.518;7.318;2024-02-04T08:38:12;101666.22;;;12.38;100.00
3917;BME280;1973;50.518;7.318;2024-02-04T08:40:39;101676.84;;;12.35;100.00
3917;BME280;1973;50.518;7.318;2024-02-04T08:43:05;101676.03;;;12.41;100.00
3917;BME280;1973;50.518;7.318;2024-02-04T08:45:32;101672.22;;;12.48;100.00
3917;BME280;1973;50.518;7.318;2024-02-04T08:47:59;101676.47;;;12.51;100.00
3917;BME280;1973;50.518;7.318;2024-02-04T08:50:25;101670.97;;;12.57;100.00
3917;BME280;1973;50.518;7.318;2024-02-04T08:52:52;101667.34;;;12.57;100.00
3917;BME280;1973;50.518;7.318;2024-02-04T08:55:18;101658.44;;;12.55;100.00
3917;BME280;1973;50.518;7.318;2024-02-04T08:57:45;101662.28;;;12.60;100.00
3917;BME280;1973;50.518;7.318;2024-02-04T09:00:15;101673.75;;;12.64;100.00
3917;BME280;1973;50.518;7.318;2024-02-04T09:02:42;101671.00;;;12.64;100.00
3917;BME280;1973;50.518;7.318;2024-02-04T09:05:09;101671.03;;;12.71;100.00
3917;BME280;1973;50.518;7.318;2024-02-04T09:07:35;101680.81;;;12.73;100.00
3917;BME280;1973;50.518;7.318;2024-02-04T09:10:02;101676.13;;;12.74;100.00
3917;BME280;1973;50.518;7.318;2024-02-04T09:12:29;101674.22;;;12.74;100.00
3917;BME280;1973;50.518;7.318;2024-02-04T09:14:56;101676.56;;;12.77;100.00
3917;BME280;1973;50.518;7.318;2024-02-04T09:17:22;101659.34;;;12.75;100.00
3917;BME280;1973;50.518;7.318;2024-02-04T09:19:49;101648.94;;;12.77;100.00
3917;BME280;1973;50.518;7.318;2024-02-04T09:22:16;101650.22;;;12.81;100.00
3917;BME280;1973;50.518;7.318;2024-02-04T09:24:43;101651.09;;;12.88;100.00
3917;BME280;1973;50.518;7.318;2024-02-04T09:27:10;101651.28;;;12.87;100.00
3917;BME280;1973;50.518;7.318;2024-02-04T09:29:36;101655.56;;;12.89;100.00
3917;BME280;1973;50.518;7.318;2024-02-04T09:32:03;101669.16;;;12.91;100.00
3917;BME280;1973;50.518;7.318;2024-02-04T09:34:30;101662.16;;;12.95;100.00
3917;BME280;1973;50.518;7.318;2024-02-04T09:36:57;101671.09;;;12.97;100.00
3917;BME280;1973;50.518;7.318;2024-02-04T09:39:24;101671.09;;;12.97;100.00
3917;BME280;1973;50.518;7.318;2024-02-04T09:41:51;101681.50;;;13.01;100.00
3917;BME280;1973;50.518;7.318;2024-02-04T09:44:18;101682.16;;;13.03;100.00
3917;BME280;1973;50.518;7.318;2024-02-04T09:46:45;101683.03;;;13.04;100.00
3917;BME280;1973;50.518;7.318;2024-02-04T09:49:12;101682.16;;;13.03;100.00
3917;BME280;1973;50.518;7.318;2024-02-04T09:51:40;101684.69;;;13.05;100.00
3917;BME280;1973;50.518;7.318;2024-02-04T09:54:10;101685.56;;;13.05;100.00
3917;BME280;1973;50.518;7.318;2024-02-04T09:56:38;101695.16;;;13.09;100.00
3917;BME280;1973;50.518;7.318;2024-02-04T09:59:06;101704.47;;;13.08;100.00
3917;BME280;1973;50.518;7.318;2024-02-04T10:01:35;101700.69;;;13.09;100.00
3917;BME280;1973;50.518;7.318;2024-02-04T10:04:02;101704.75;;;13.13;100.00
3917;BME280;1973;50.518;7.318;2024-02-04T10:06:28;101697.09;;;13.15;100.00
3917;BME280;1973;50.518;7.318;2024-02-04T10:08:56;101692.41;;;13.16;100.00
3917;BME280;1973;50.518;7.318;2024-02-04T10:11:22;101692.63;;;13.14;100.00
3917;BME280;1973;50.518;7.318;2024-02-04T10:13:49;101677.34;;;13.25;100.00
3917;BME280;1973;50.518;7.318;2024-02-04T10:16:17;101677.97;;;13.34;100.00
3917;BME280;1973;50.518;7.318;2024-02-04T10:18:44;101674.97;;;13.42;100.00
3917;BME280;1973;50.518;7.318;2024-02-04T10:21:17;101675.19;;;13.47;100.00
3917;BME280;1973;50.518;7.318;2024-02-04T10:23:46;101676.69;;;13.49;100.00
3917;BME280;1973;50.518;7.318;2024-02-04T10:26:12;101671.56;;;13.53;100.00
3917;BME280;1973;50.518;7.318;2024-02-04T10:28:39;101668.19;;;13.51;100.00
3917;BME280;1973;50.518;7.318;2024-02-04T10:31:10;101670.94;;;13.51;100.00
3917;BME280;1973;50.518;7.318;2024-02-04T10:33:37;101670.75;;;13.52;100.00
3917;BME280;1973;50.518;7.318;2024-02-04T10:36:05;101670.53;;;13.54;100.00
3917;BME280;1973;50.518;7.318;2024-02-04T10:38:32;101661.78;;;13.57;100.00
3917;BME280;1973;50.518;7.318;2024-02-04T10:41:00;101657.53;;;13.61;100.00
3917;BME280;1973;50.518;7.318;2024-02-04T10:43:31;101650.28;;;13.60;100.00
3917;BME280;1973;50.518;7.318;2024-02-04T10:46:04;101644.34;;;13.63;100.00
3917;BME280;1973;50.518;7.318;2024-02-04T10:48:36;101639.22;;;13.73;100.00
3917;BME280;1973;50.518;7.318;2024-02-04T10:51:13;101637.91;;;13.82;100.00
3917;BME280;1973;50.518;7.318;2024-02-04T10:53:45;101650.66;;;13.96;100.00
3917;BME280;1973;50.518;7.318;2024-02-04T10:56:42;101644.66;;;14.06;100.00
3917;BME280;1973;50.518;7.318;2024-02-04T10:59:09;101643.38;;;14.08;100.00
3917;BME280;1973;50.518;7.318;2024-02-04T11:01:39;101634.00;;;14.09;100.00
3917;BME280;1973;50.518;7.318;2024-02-04T11:04:06;101636.97;;;14.14;100.00
3917;BME280;1973;50.518;7.318;2024-02-04T11:06:35;101628.84;;;14.20;100.00
3917;BME280;1973;50.518;7.318;2024-02-04T11:09:04;101619.25;;;14.22;100.00
3917;BME280;1973;50.518;7.318;2024-02-04T11:11:32;101640.56;;;14.22;100.00
3917;BME280;1973;50.518;7.318;2024-02-04T11:14:01;101619.88;;;14.24;100.00
3917;BME280;1973;50.518;7.318;2024-02-04T11:19:39;101618.63;;;14.20;100.00
3917;BME280;1973;50.518;7.318;2024-02-04T11:22:21;101622.03;;;14.15;100.00
3917;BME280;1973;50.518;7.318;2024-02-04T11:25:01;101624.81;;;14.15;100.00
3917;BME280;1973;50.518;7.318;2024-02-04T11:27:29;101607.56;;;14.13;100.00
3917;BME280;1973;50.518;7.318;2024-02-04T11:29:56;101602.03;;;14.13;100.00
3917;BME280;1973;50.518;7.318;2024-02-04T11:32:26;101601.13;;;14.20;100.00
3917;BME280;1973;50.518;7.318;2024-02-04T11:34:53;101604.34;;;14.17;100.00
3917;BME280;1973;50.518;7.318;2024-02-04T11:37:22;101603.75;;;14.08;100.00
3917;BME280;1973;50.518;7.318;2024-02-04T11:39:51;101596.56;;;14.00;100.00
3917;BME280;1973;50.518;7.318;2024-02-04T11:42:18;101596.56;;;14.00;100.00
3917;BME280;1973;50.518;7.318;2024-02-04T11:44:46;101588.44;;;14.05;100.00
3917;BME280;1973;50.518;7.318;2024-02-04T11:47:23;101595.47;;;14.01;100.00
3917;BME280;1973;50.518;7.318;2024-02-04T11:49:57;101595.91;;;13.98;100.00
3917;BME280;1973;50.518;7.318;2024-02-04T11:52:27;101598.69;;;13.98;100.00
3917;BME280;1973;50.518;7.318;2024-02-04T11:54:55;101594.84;;;13.99;100.00
3917;BME280;1973;50.518;7.318;2024-02-04T11:57:22;101601.66;;;13.97;100.00
3917;BME280;1973;50.518;7.318;2024-02-04T11:59:50;101592.06;;;13.99;100.00
3917;BME280;1973;50.518;7.318;2024-02-04T12:02:19;101584.63;;;13.93;100.00
3917;BME280;1973;50.518;7.318;2024-02-04T12:04:47;101582.06;;;13.98;100.00
3917;BME280;1973;50.518;7.318;2024-02-04T12:07:15;101582.72;;;14.00;100.00
3917;BME280;1973;50.518;7.318;2024-02-04T12:09:42;101603.59;;;13.96;100.00
3917;BME280;1973;50.518;7.318;2024-02-04T12:12:09;101591.44;;;13.97;100.00
3917;BME280;1973;50.518;7.318;2024-02-04T12:14:35;101585.31;;;13.89;100.00
3917;BME280;1973;50.518;7.318;2024-02-04T12:17:11;101585.91;;;13.91;100.00
3917;BME280;1973;50.518;7.318;2024-02-04T12:19:38;101575.09;;;13.89;100.00
3917;BME280;1973;50.518;7.318;2024-02-04T12:22:10;101561.66;;;13.93;100.00
3917;BME280;1973;50.518;7.318;2024-02-04T12:24:37;101569.72;;;13.94;100.00
3917;BME280;1973;50.518;7.318;2024-02-04T12:27:05;101576.16;;;13.88;100.00
3917;BME280;1973;50.518;7.318;2024-02-04T12:29:32;101560.59;;;13.87;100.00
3917;BME280;1973;50.518;7.318;2024-02-04T12:32:02;101559.53;;;13.88;100.00
3917;BME280;1973;50.518;7.318;2024-02-04T12:34:30;101554.84;;;13.89;100.00
3917;BME280;1973;50.518;7.318;2024-02-04T12:36:59;101567.59;;;13.90;100.00
3917;BME280;1973;50.518;7.318;2024-02-04T12:39:29;101571.03;;;13.92;100.00
3917;BME280;1973;50.518;7.318;2024-02-04T12:41:58;101562.31;;;13.88;100.00
3917;BME280;1973;50.518;7.318;2024-02-04T12:44:26;101551.84;;;13.90;100.00
3917;BME280;1973;50.518;7.318;2024-02-04T12:46:52;101557.19;;;13.92;100.00
3917;BME280;1973;50.518;7.318;2024-02-04T12:49:20;101551.41;;;13.93;100.00
3917;BME280;1973;50.518;7.318;2024-02-04T12:51:50;101559.91;;;13.98;100.00
3917;BME280;1973;50.518;7.318;2024-02-04T12:54:23;101545.63;;;14.01;100.00
3917;BME280;1973;50.518;7.318;2024-02-04T12:56:53;101546.22;;;14.10;100.00
3917;BME280;1973;50.518;7.318;2024-02-04T12:59:31;101544.31;;;14.10;100.00
3917;BME280;1973;50.518;7.318;2024-02-04T13:02:06;101544.94;;;14.12;100.00
3917;BME280;1973;50.518;7.318;2024-02-04T13:04:34;101535.13;;;14.17;100.00
3917;BME280;1973;50.518;7.318;2024-02-04T13:07:06;101535.53;;;14.20;100.00
3917;BME280;1973;50.518;7.318;2024-02-04T13:09:33;101531.69;;;14.21;100.00
3917;BME280;1973;50.518;7.318;2024-02-04T13:12:04;101525.69;;;14.24;100.00